Time;durP1;ratioP1;P1;durP2;ratioP2;P2;SDS_P1;SDS_P2;PMS_P1;PMS_P2;Temp;Humidity;BMP_temperature;BMP_pressure;BME280_temperature;BME280_humidity;BME280_pressure;Samples;Min_cycle;Max_cycle;Signal;HPM_P1;HPM_P2
2023/07/05 00:05:54;;;;;;;13.63;6.43;;;;;;;-145.18;100.00;46660.41;5062370;28;20039;-61
2023/07/05 00:08:29;;;;;;;11.97;6.50;;;;;;;-145.18;100.00;46660.41;5083958;28;20060;-61
2023/07/05 00:11:04;;;;;;;10.00;6.50;;;;;;;-145.18;100.00;46660.41;5083054;28;20411;-61
2023/07/05 00:13:30;;;;;;;;;;;;;;;-145.18;100.00;46660.41;5077423;28;20047;-62
2023/07/05 00:15:55;;;;;;;13.07;6.00;;;;;;;-145.18;100.00;46660.41;5066445;28;19966;-61
2023/07/05 00:18:21;;;;;;;9.07;5.90;;;;;;;-145.18;100.00;46660.41;5056855;28;20020;-61
2023/07/05 00:20:46;;;;;;;9.73;5.40;;;;;;;-145.18;100.00;46660.41;5073689;28;20043;-61
2023/07/05 00:23:11;;;;;;;13.43;6.80;;;;;;;-145.18;100.00;46660.41;5072989;28;20028;-61
2023/07/05 00:25:37;;;;;;;8.97;5.97;;;;;;;-145.18;100.00;46660.41;5073345;28;20388;-61
2023/07/05 00:28:03;;;;;;;12.67;5.40;;;;;;;-145.18;100.00;46660.41;5086352;28;20085;-60
2023/07/05 00:30:28;;;;;;;9.17;5.23;;;;;;;-145.18;100.00;46660.41;5073408;28;20043;-60
2023/07/05 00:32:54;;;;;;;12.90;4.87;;;;;;;-145.18;100.00;46660.41;5072853;28;20020;-61
2023/07/05 00:35:19;;;;;;;8.23;4.40;;;;;;;-145.18;100.00;46660.41;5078816;28;20032;-60
2023/07/05 00:37:44;;;;;;;7.90;4.63;;;;;;;-145.18;100.00;46660.41;5055008;28;20531;-61
2023/07/05 00:40:10;;;;;;;10.53;4.50;;;;;;;-145.18;100.00;46660.41;5077058;28;20134;-61
2023/07/05 00:42:36;;;;;;;7.77;4.23;;;;;;;-145.18;100.00;46660.41;5073499;28;20017;-61
2023/07/05 00:45:10;;;;;;;10.80;3.97;;;;;;;-145.18;100.00;46660.41;5071726;28;20111;-61
2023/07/05 00:47:43;;;;;;;8.70;4.22;;;;;;;-145.18;100.00;46660.41;5073664;28;20408;-60
2023/07/05 00:50:22;;;;;;;6.43;3.73;;;;;;;-145.18;100.00;46660.41;5078174;28;20054;-61
2023/07/05 00:52:49;;;;;;;6.00;4.17;;;;;;;-145.18;100.00;46660.41;5072094;28;20027;-61
2023/07/05 00:55:16;;;;;;;6.97;3.47;;;;;;;-145.18;100.00;46660.41;5072669;28;20431;-61
2023/07/05 00:57:41;;;;;;;7.80;3.70;;;;;;;-145.18;100.00;46660.41;5090631;28;20046;-60
2023/07/05 01:00:11;;;;;;;6.63;3.53;;;;;;;-145.18;100.00;46660.41;5090406;28;20051;-61
2023/07/05 01:02:39;;;;;;;4.10;2.87;;;;;;;-145.18;100.00;46660.41;5079997;28;20017;-61
2023/07/05 01:05:06;;;;;;;7.40;3.20;;;;;;;-145.18;100.00;46660.41;5092339;28;20541;-61
2023/07/05 01:07:31;;;;;;;4.20;2.37;;;;;;;-145.18;100.00;46660.41;5076800;28;20021;-61
2023/07/05 01:09:57;;;;;;;7.73;3.27;;;;;;;-145.18;100.00;46660.41;5072505;28;20089;-62
2023/07/05 01:12:26;;;;;;;4.43;2.20;;;;;;;-145.18;100.00;46660.41;5087482;28;20051;-61
2023/07/05 01:15:06;;;;;;;3.90;2.27;;;;;;;-145.18;100.00;46660.41;5072380;28;20020;-61
2023/07/05 01:17:54;;;;;;;5.00;2.53;;;;;;;-145.18;100.00;46660.41;5090378;28;20023;-61
2023/07/05 01:21:06;;;;;;;6.63;2.30;;;;;;;-145.18;100.00;46660.41;5074671;28;20027;-60
2023/07/05 01:23:44;;;;;;;4.03;1.77;;;;;;;-145.18;100.00;46660.41;5036670;28;20087;-61
2023/07/05 01:43:06;;;;;;;2.17;1.52;;;;;;;-145.18;100.00;46660.41;5071210;28;20132;-60
2023/07/05 01:46:18;;;;;;;8.63;1.67;;;;;;;-145.18;100.00;46636.94;5028019;28;20041;-60
2023/07/05 01:49:04;;;;;;;6.40;1.73;;;;;;;-145.18;100.00;46644.78;5049640;28;20048;-60
2023/07/05 01:51:52;;;;;;;;;;;;;;;-145.18;100.00;46640.88;5060827;28;20119;-60
2023/07/05 01:54:25;;;;;;;2.70;1.23;;;;;;;-145.18;100.00;46650.63;5066811;28;19912;-60
2023/07/05 01:57:04;;;;;;;4.20;1.40;;;;;;;-145.18;100.00;46654.53;5064754;28;20033;-60
2023/07/05 01:59:43;;;;;;;2.77;1.33;;;;;;;-145.18;100.00;46656.50;5058267;28;20056;-60
2023/07/05 02:02:12;;;;;;;2.70;1.20;;;;;;;-145.18;100.00;46658.44;5055326;28;20475;-60
2023/07/05 02:04:38;;;;;;;4.80;1.53;;;;;;;-145.18;100.00;46656.50;5058407;28;20468;-60
2023/07/05 02:07:05;;;;;;;3.20;1.60;;;;;;;-145.18;100.00;46668.22;5056904;28;20044;-60
2023/07/05 02:09:38;;;;;;;5.00;1.67;;;;;;;-145.18;100.00;46666.25;5049472;28;20044;-60
2023/07/05 02:12:07;;;;;;;4.67;1.77;;;;;;;-145.18;100.00;46668.22;5048833;28;20036;-60
2023/07/05 02:14:33;;;;;;;6.83;2.57;;;;;;;-145.18;100.00;46660.41;5049815;28;20037;-60
2023/07/05 02:16:58;;;;;;;3.47;2.20;;;;;;;-145.18;100.00;46660.41;5071874;28;20504;-60
2023/07/05 02:19:24;;;;;;;7.93;3.10;;;;;;;-145.18;100.00;46662.34;5051785;28;20132;-60
2023/07/05 02:21:50;;;;;;;4.50;2.30;;;;;;;-145.18;100.00;46664.31;5060582;28;20036;-60
2023/07/05 02:24:15;;;;;;;3.80;2.30;;;;;;;-145.18;100.00;46662.34;5075895;28;20353;-60
2023/07/05 02:26:41;;;;;;;5.70;2.73;;;;;;;-145.18;100.00;46654.53;5061755;28;20038;-60
2023/07/05 02:29:06;;;;;;;7.53;2.53;;;;;;;-145.18;100.00;46656.50;5060784;28;20037;-60
2023/07/05 02:31:32;;;;;;;5.73;2.40;;;;;;;-145.18;100.00;46658.44;5074525;28;20694;-60
2023/07/05 02:33:57;;;;;;;5.13;2.10;;;;;;;-145.18;100.00;46660.41;5075019;28;20369;-60
2023/07/05 02:36:22;;;;;;;5.10;2.30;;;;;;;-145.18;100.00;46660.41;5075030;28;20111;-60
2023/07/05 02:38:48;;;;;;;6.13;2.40;;;;;;;-145.18;100.00;46654.53;5061937;28;20029;-60
2023/07/05 02:41:13;;;;;;;7.00;3.23;;;;;;;-145.18;100.00;46664.31;5055351;28;20065;-60
2023/07/05 02:43:38;;;;;;;4.77;3.00;;;;;;;-145.18;100.00;46656.50;5055305;28;20029;-60
2023/07/05 02:46:05;;;;;;;6.37;3.33;;;;;;;-145.18;100.00;46662.34;5057361;28;20024;-61
2023/07/05 02:48:31;;;;;;;6.87;3.80;;;;;;;-145.18;100.00;46662.34;5075140;28;20104;-60
2023/07/05 02:50:57;;;;;;;7.97;4.83;;;;;;;-145.18;100.00;46652.59;5074930;28;20024;-60
2023/07/05 02:53:22;;;;;;;7.87;4.10;;;;;;;-145.18;100.00;46660.41;5075648;28;20115;-60
2023/07/05 02:55:49;;;;;;;9.63;3.83;;;;;;;-145.18;100.00;46658.44;5056420;28;20107;-60
2023/07/05 02:58:15;;;;;;;5.50;3.57;;;;;;;-145.18;100.00;46662.34;5074693;28;20446;-60
2023/07/05 03:00:42;;;;;;;5.57;3.53;;;;;;;-145.18;100.00;46662.34;5104133;28;20036;-60
2023/07/05 03:03:07;;;;;;;5.57;3.47;;;;;;;-145.18;100.00;46668.22;5075373;28;20024;-60
2023/07/05 03:05:32;;;;;;;8.00;3.20;;;;;;;-145.18;100.00;46656.50;5074548;28;20400;-60
2023/07/05 03:07:58;;;;;;;4.67;2.93;;;;;;;-145.18;100.00;46662.34;5075364;28;20107;-60
2023/07/05 03:10:23;;;;;;;8.80;3.40;;;;;;;-145.18;100.00;46664.31;5075404;28;20025;-60
2023/07/05 03:12:48;;;;;;;4.40;2.57;;;;;;;-145.18;100.00;46662.34;5074783;28;20040;-62
2023/07/05 03:15:14;;;;;;;8.70;3.00;;;;;;;-145.18;100.00;46662.34;5069590;28;20068;-60
2023/07/05 03:17:39;;;;;;;9.57;2.90;;;;;;;-145.18;100.00;46660.41;5070704;28;20062;-60
2023/07/05 03:20:05;;;;;;;10.50;4.57;;;;;;;-145.18;100.00;46668.22;5074329;28;20086;-60
2023/07/05 03:22:31;;;;;;;8.10;3.00;;;;;;;-145.18;100.00;46658.44;5086209;28;20592;-60
2023/07/05 03:24:56;;;;;;;6.20;3.03;;;;;;;-145.18;100.00;46662.34;5076118;28;20054;-60
2023/07/05 03:27:21;;;;;;;5.57;2.70;;;;;;;-145.18;100.00;46666.25;5089310;28;20036;-61
2023/07/05 03:29:47;;;;;;;5.10;2.47;;;;;;;-145.18;100.00;46668.22;5075682;28;20036;-61
2023/07/05 03:32:13;;;;;;;4.80;2.80;;;;;;;-145.18;100.00;46670.16;5057123;28;20113;-61
2023/07/05 03:34:39;;;;;;;5.47;2.70;;;;;;;-145.18;100.00;46664.31;5074002;28;20040;-61
2023/07/05 03:37:04;;;;;;;10.13;3.27;;;;;;;-145.18;100.00;46662.34;5075397;28;20035;-60
2023/07/05 03:39:30;;;;;;;7.07;2.57;;;;;;;-145.18;100.00;46666.25;5058283;28;20024;-61
2023/07/05 03:41:55;;;;;;;7.30;3.13;;;;;;;-145.18;100.00;46674.06;5086903;28;20039;-60
2023/07/05 03:44:22;;;;;;;8.00;2.80;;;;;;;-145.18;100.00;46672.13;5056170;28;20491;-60
2023/07/05 03:46:50;;;;;;;6.33;3.10;;;;;;;-145.18;100.00;46674.06;5056584;28;20060;-61
2023/07/05 03:49:16;;;;;;;7.90;3.00;;;;;;;-145.18;100.00;46672.13;5076638;28;20024;-60
2023/07/05 03:51:44;;;;;;;5.23;2.80;;;;;;;-145.18;100.00;46666.25;5083729;28;20031;-60
2023/07/05 03:54:10;;;;;;;6.47;3.20;;;;;;;-145.18;100.00;46668.22;5055376;28;20158;-60
2023/07/05 03:56:35;;;;;;;8.13;3.33;;;;;;;-145.18;100.00;46674.06;5072682;28;20040;-61
2023/07/05 03:59:02;;;;;;;6.87;3.20;;;;;;;-145.18;100.00;46672.13;5064679;28;20149;-61
2023/07/05 04:01:29;;;;;;;6.57;3.37;;;;;;;-145.18;100.00;46679.94;5075044;28;20050;-67
2023/07/05 04:03:57;;;;;;;9.93;3.60;;;;;;;-145.18;100.00;46664.31;5083593;28;20361;-67
2023/07/05 04:06:25;;;;;;;9.13;3.30;;;;;;;-145.18;100.00;46664.31;5071773;28;20027;-67
2023/07/05 04:08:51;;;;;;;6.97;3.47;;;;;;;-145.18;100.00;46664.31;5084168;28;20104;-67
2023/07/05 04:11:16;;;;;;;10.30;3.67;;;;;;;-145.18;100.00;46666.25;5088214;28;20032;-67
2023/07/05 04:13:44;;;;;;;6.73;3.30;;;;;;;-145.18;100.00;46670.16;5083510;28;20028;-67
2023/07/05 04:16:16;;;;;;;10.67;3.50;;;;;;;-145.18;100.00;46666.25;5088716;28;20023;-67
2023/07/05 04:18:43;;;;;;;5.50;2.90;;;;;;;-145.18;100.00;46670.16;5083920;28;20027;-67
2023/07/05 04:21:09;;;;;;;5.33;2.70;;;;;;;-145.18;100.00;46668.22;5080295;28;20032;-67
2023/07/05 04:23:35;;;;;;;10.93;3.33;;;;;;;-145.18;100.00;46668.22;5078074;28;20024;-67
2023/07/05 04:26:04;;;;;;;13.27;3.50;;;;;;;-145.18;100.00;46670.16;5104570;28;20032;-67
2023/07/05 04:28:31;;;;;;;9.40;3.90;;;;;;;-145.18;100.00;46676.03;5082235;28;20024;-67
2023/07/05 04:30:57;;;;;;;10.43;3.37;;;;;;;-145.18;100.00;46666.25;5081873;28;20077;-67
2023/07/05 04:33:22;;;;;;;8.53;3.23;;;;;;;-145.18;100.00;46676.03;5084885;28;20024;-67
2023/07/05 04:35:54;;;;;;;5.13;2.67;;;;;;;-145.18;100.00;46668.22;5079640;28;20437;-67
2023/07/05 04:38:20;;;;;;;5.07;3.07;;;;;;;-145.18;100.00;46672.13;5082214;28;20055;-68
2023/07/05 04:40:45;;;;;;;10.03;3.13;;;;;;;-145.18;100.00;46668.22;5067701;28;20055;-67
2023/07/05 04:43:10;;;;;;;6.87;3.43;;;;;;;-145.18;100.00;46664.31;5084874;28;20034;-67
2023/07/05 04:45:36;;;;;;;5.77;3.37;;;;;;;-145.18;100.00;46670.16;5087175;28;20031;-67
2023/07/05 04:48:01;;;;;;;6.07;2.90;;;;;;;-145.18;100.00;46662.34;5076542;28;20088;-69
2023/07/05 04:50:27;;;;;;;6.43;3.00;;;;;;;-145.18;100.00;46662.34;5069095;28;20482;-68
2023/07/05 04:52:52;;;;;;;7.43;2.97;;;;;;;-145.18;100.00;46658.44;5082027;28;20029;-68
2023/07/05 04:55:18;;;;;;;5.80;2.87;;;;;;;-145.18;100.00;46662.34;5054072;28;20032;-68
2023/07/05 04:57:43;;;;;;;6.10;2.80;;;;;;;-145.18;100.00;46656.50;5088229;28;20488;-67
2023/07/05 05:00:12;;;;;;;7.40;2.83;;;;;;;-145.18;100.00;46654.53;5072596;28;20032;-68
2023/07/05 05:02:38;;;;;;;7.90;2.70;;;;;;;-145.18;100.00;46654.53;5080563;28;20024;-66
2023/07/05 05:05:05;;;;;;;7.20;3.10;;;;;;;-145.18;100.00;46660.41;5077670;28;20057;-66
2023/07/05 05:07:30;;;;;;;6.13;3.43;;;;;;;-145.18;100.00;46656.50;5072222;28;20025;-67
2023/07/05 05:09:57;;;;;;;5.20;2.77;;;;;;;-145.18;100.00;46646.72;5072063;28;20032;-67
2023/07/05 05:12:22;;;;;;;4.90;2.67;;;;;;;-145.18;100.00;46642.81;5072486;28;20036;-67
2023/07/05 05:14:48;;;;;;;5.97;2.90;;;;;;;-145.18;100.00;46652.59;5087783;28;20040;-66
2023/07/05 05:17:13;;;;;;;11.03;3.33;;;;;;;-145.18;100.00;46642.81;5079840;28;20028;-68
2023/07/05 05:19:39;;;;;;;4.70;2.30;;;;;;;-145.18;100.00;46650.63;5091620;28;20036;-61
2023/07/05 05:22:04;;;;;;;3.90;1.57;;;;;;;-145.18;100.00;46644.78;5089794;28;20024;-61
2023/07/05 05:24:29;;;;;;;3.87;2.53;;;;;;;-145.18;100.00;46646.72;5106626;28;20032;-60
2023/07/05 05:26:55;;;;;;;8.20;3.00;;;;;;;-145.18;100.00;46640.88;5091531;28;20056;-60
2023/07/05 05:29:20;;;;;;;8.23;3.30;;;;;;;-145.18;100.00;46638.91;5091232;28;20149;-60
2023/07/05 05:31:47;;;;;;;6.97;2.93;;;;;;;-145.18;100.00;46640.88;5091999;28;20394;-61
2023/07/05 05:34:13;;;;;;;7.93;3.17;;;;;;;-145.18;100.00;46640.88;5091192;28;20028;-60
2023/07/05 05:36:38;;;;;;;8.23;3.90;;;;;;;-145.18;100.00;46640.88;5092012;28;20046;-60
2023/07/05 05:39:04;;;;;;;6.37;4.00;;;;;;;-145.18;100.00;46644.78;5090433;28;20027;-60
2023/07/05 05:41:29;;;;;;;8.10;3.80;;;;;;;-145.18;100.00;46640.88;5087580;28;20139;-60
2023/07/05 05:43:54;;;;;;;11.80;3.40;;;;;;;-145.18;100.00;46640.88;5072276;28;20029;-60
2023/07/05 05:46:20;;;;;;;5.93;3.00;;;;;;;-145.18;100.00;46642.81;5083917;28;20467;-60
2023/07/05 05:48:45;;;;;;;5.90;2.90;;;;;;;-145.18;100.00;46635.00;5087064;28;20035;-60
2023/07/05 05:51:11;;;;;;;5.17;2.53;;;;;;;-145.18;100.00;46640.88;5083163;28;20024;-62
2023/07/05 05:53:36;;;;;;;5.37;2.43;;;;;;;-145.18;100.00;46638.91;5053369;28;20090;-61
2023/07/05 05:56:02;;;;;;;8.03;2.83;;;;;;;-145.18;100.00;46640.88;5065506;28;20467;-62
2023/07/05 05:58:27;;;;;;;7.47;2.47;;;;;;;-145.18;100.00;46636.94;5049997;28;20028;-61
2023/07/05 06:00:53;;;;;;;4.47;2.13;;;;;;;-145.18;100.00;46636.94;5062682;28;20419;-61
2023/07/05 06:03:18;;;;;;;4.10;1.50;;;;;;;-145.18;100.00;46635.00;5066134;28;20040;-62
2023/07/05 06:05:43;;;;;;;5.57;1.57;;;;;;;-145.18;100.00;46633.06;5048570;28;20111;-62
2023/07/05 06:08:09;;;;;;;5.73;1.40;;;;;;;-145.18;100.00;46635.00;5064299;28;20529;-62
2023/07/05 06:10:34;;;;;;;4.97;1.23;;;;;;;-145.18;100.00;46636.94;5065466;28;20039;-61
2023/07/05 06:13:00;;;;;;;3.43;0.97;;;;;;;-145.18;100.00;46633.06;5067664;28;20033;-61
2023/07/05 06:15:25;;;;;;;3.67;1.00;;;;;;;-145.18;100.00;46635.00;5067387;28;20034;-61
2023/07/05 06:17:52;;;;;;;6.93;1.50;;;;;;;-145.18;100.00;46635.00;5069378;28;20030;-61
2023/07/05 06:20:18;;;;;;;7.90;1.83;;;;;;;-145.18;100.00;46635.00;5060724;28;20048;-61
2023/07/05 06:22:43;;;;;;;11.80;1.33;;;;;;;-145.18;100.00;46636.94;5067357;28;20468;-61
2023/07/05 06:25:13;;;;;;;4.73;1.20;;;;;;;-145.18;100.00;46635.00;5077014;28;20430;-61
2023/07/05 06:27:39;;;;;;;5.40;1.27;;;;;;;-145.18;100.00;46636.94;5070338;28;20494;-61
2023/07/05 06:30:05;;;;;;;7.87;1.67;;;;;;;-145.18;100.00;46636.94;5065435;28;20033;-68
2023/07/05 06:32:32;;;;;;;5.80;1.10;;;;;;;-145.18;100.00;46638.91;5077119;28;20032;-68
2023/07/05 06:34:58;;;;;;;5.63;1.10;;;;;;;-145.18;100.00;46638.91;5103376;28;20387;-68
2023/07/05 06:37:23;;;;;;;11.53;1.10;;;;;;;-145.18;100.00;46638.91;5082784;28;20017;-68
2023/07/05 06:39:49;;;;;;;3.60;0.90;;;;;;;-145.18;100.00;46636.94;5071314;28;20059;-68
2023/07/05 06:42:14;;;;;;;7.63;1.10;;;;;;;-145.18;100.00;46635.00;5083412;28;20017;-68
2023/07/05 06:44:40;;;;;;;4.47;1.20;;;;;;;-145.18;100.00;46640.88;5080318;28;20104;-68
2023/07/05 06:47:05;;;;;;;5.70;1.40;;;;;;;-145.18;100.00;46640.88;5080712;28;20098;-68
2023/07/05 06:49:31;;;;;;;7.83;1.40;;;;;;;-145.18;100.00;46636.94;5071510;28;20049;-68
2023/07/05 06:51:56;;;;;;;10.50;2.67;;;;;;;-145.18;100.00;46638.91;5083341;28;20111;-68
2023/07/05 06:54:21;;;;;;;5.23;1.40;;;;;;;-145.18;100.00;46638.91;5072399;28;20090;-68
2023/07/05 06:56:47;;;;;;;8.17;1.57;;;;;;;-145.18;100.00;46636.94;5085135;28;20143;-68
2023/07/05 06:59:12;;;;;;;8.40;2.30;;;;;;;-145.18;100.00;46635.00;5091623;28;20056;-68
2023/07/05 07:01:38;;;;;;;12.20;1.90;;;;;;;-145.18;100.00;46635.00;5093174;28;20085;-68
2023/07/05 07:04:07;;;;;;;8.13;1.80;;;;;;;-145.18;100.00;46635.00;5094517;28;20012;-68
2023/07/05 07:06:33;;;;;;;6.77;1.93;;;;;;;-145.18;100.00;46642.81;5093902;28;20020;-68
2023/07/05 07:09:01;;;;;;;7.73;1.87;;;;;;;-145.18;100.00;46636.94;5084445;28;20483;-68
2023/07/05 07:11:27;;;;;;;6.63;1.93;;;;;;;-145.18;100.00;46640.88;5092912;28;20024;-68
2023/07/05 07:13:52;;;;;;;4.73;1.73;;;;;;;-145.18;100.00;46636.94;5094377;28;20031;-68
2023/07/05 07:16:17;;;;;;;7.90;2.30;;;;;;;-145.18;100.00;46644.78;5092282;28;20036;-68
2023/07/05 07:18:48;;;;;;;3.57;1.60;;;;;;;-145.18;100.00;46644.78;5094120;28;20050;-68
2023/07/05 07:21:15;;;;;;;2.93;1.50;;;;;;;-145.18;100.00;46642.81;5080288;28;20035;-68
2023/07/05 07:23:41;;;;;;;6.23;1.70;;;;;;;-145.18;100.00;46644.78;5075597;28;20173;-68
2023/07/05 07:26:09;;;;;;;7.60;2.00;;;;;;;-145.18;100.00;46638.91;5073958;28;20555;-68
2023/07/05 07:28:35;;;;;;;8.23;2.13;;;;;;;-145.18;100.00;46644.78;5093782;28;20090;-68
2023/07/05 07:31:16;;;;;;;7.50;2.53;;;;;;;-145.18;100.00;46642.81;5092530;28;20028;-68
2023/07/05 07:33:45;;;;;;;7.37;1.80;;;;;;;-145.18;100.00;46642.81;5093562;28;20111;-68
2023/07/05 07:36:13;;;;;;;9.53;2.47;;;;;;;-145.18;100.00;46642.81;5092274;28;20031;-68
2023/07/05 07:38:40;;;;;;;12.80;2.53;;;;;;;-145.18;100.00;46642.81;5093405;28;20024;-68
2023/07/05 07:41:19;;;;;;;4.37;2.00;;;;;;;-145.18;100.00;46642.81;5087415;28;20476;-62
2023/07/05 07:43:45;;;;;;;10.20;2.10;;;;;;;-145.18;100.00;46644.78;5085943;28;20035;-61
2023/07/05 07:46:14;;;;;;;5.83;2.50;;;;;;;-145.18;100.00;46650.63;5091454;28;20095;-61
2023/07/05 07:48:41;;;;;;;6.97;2.30;;;;;;;-145.18;100.00;46644.78;5091651;28;20850;-62
2023/07/05 07:51:09;;;;;;;3.53;2.03;;;;;;;-145.18;100.00;46648.69;5061892;28;20035;-62
2023/07/05 07:53:35;;;;;;;7.87;2.20;;;;;;;-145.18;100.00;46650.63;5074835;28;20028;-62
2023/07/05 07:56:00;;;;;;;7.40;2.80;;;;;;;-145.18;100.00;46646.72;5067603;28;20032;-62
2023/07/05 07:58:26;;;;;;;6.80;3.10;;;;;;;-145.18;100.00;46644.78;5093687;28;20488;-62
2023/07/05 08:00:51;;;;;;;8.00;2.77;;;;;;;-145.18;100.00;46648.69;5069075;28;20107;-62
2023/07/05 08:03:17;;;;;;;6.67;2.77;;;;;;;-145.18;100.00;46648.69;5074088;28;20468;-61
2023/07/05 08:05:43;;;;;;;8.00;2.67;;;;;;;-145.18;100.00;46644.78;5074030;28;20021;-61
2023/07/05 08:08:08;;;;;;;11.60;2.90;;;;;;;-145.18;100.00;46644.78;5089964;28;20032;-62
2023/07/05 08:10:34;;;;;;;9.20;3.00;;;;;;;-145.18;100.00;46640.88;5073759;28;20029;-61
2023/07/05 08:12:59;;;;;;;10.27;3.40;;;;;;;-145.18;100.00;46644.78;5073236;28;20115;-61
2023/07/05 08:15:24;;;;;;;6.77;3.03;;;;;;;-145.18;100.00;46646.72;5073969;28;20506;-61
2023/07/05 08:17:50;;;;;;;8.30;2.77;;;;;;;-145.18;100.00;46640.88;5074175;28;20120;-61
2023/07/05 08:20:16;;;;;;;6.83;3.00;;;;;;;-145.18;100.00;46642.81;5074357;28;20024;-61
2023/07/05 08:22:41;;;;;;;11.93;3.37;;;;;;;-145.18;100.00;46636.94;5073994;28;20719;-61
2023/07/05 08:25:07;;;;;;;8.47;3.20;;;;;;;-145.18;100.00;46640.88;5076449;28;20024;-61
2023/07/05 08:27:33;;;;;;;8.00;2.30;;;;;;;-145.18;100.00;46642.81;5073976;28;20033;-61
2023/07/05 08:29:58;;;;;;;7.13;2.30;;;;;;;-145.18;100.00;46650.63;5087156;28;20099;-61
2023/07/05 08:32:23;;;;;;;11.13;3.63;;;;;;;-145.18;100.00;46650.63;5056276;28;20032;-61
2023/07/05 08:34:49;;;;;;;6.90;2.80;;;;;;;-145.18;100.00;46648.69;5056227;28;20408;-61
2023/07/05 08:37:15;;;;;;;8.47;2.77;;;;;;;-145.18;100.00;46648.69;5074458;28;20048;-61
2023/07/05 08:39:40;;;;;;;7.83;1.90;;;;;;;-145.18;100.00;46654.53;5073888;28;20495;-61
2023/07/05 08:42:26;;;;;;;9.10;2.33;;;;;;;-145.18;100.00;46664.31;5089286;28;20039;-61
2023/07/05 08:44:51;;;;;;;7.50;1.88;;;;;;;-145.18;100.00;46668.22;5073378;28;20048;-61
2023/07/05 08:47:24;;;;;;;3.73;1.57;;;;;;;-145.18;100.00;46666.25;5073501;28;20125;-60
2023/07/05 08:50:05;;;;;;;6.87;1.83;;;;;;;-145.18;100.00;46674.06;5073827;28;20045;-67
2023/07/05 08:52:42;;;;;;;6.03;1.87;;;;;;;-145.18;100.00;46672.13;5077982;28;20036;-67
2023/07/05 08:55:14;;;;;;;5.10;1.50;;;;;;;-145.18;100.00;46668.22;5080079;28;20028;-67
2023/07/05 08:58:00;;;;;;;10.73;2.37;;;;;;;-145.18;100.00;46658.44;5066437;28;20067;-67
2023/07/05 09:00:46;;;;;;;10.90;1.83;;;;;;;-145.18;100.00;46654.53;5092115;28;20031;-67
2023/07/05 09:03:14;;;;;;;4.97;1.60;;;;;;;-145.18;100.00;46584.22;5075458;28;20488;-67
2023/07/05 09:05:55;;;;;;;6.30;1.73;;;;;;;-145.18;100.00;46617.41;5067107;28;20036;-67
2023/07/05 09:08:58;;;;;;;3.23;1.50;;;;;;;-145.18;100.00;46629.13;5072628;28;20028;-67
2023/07/05 09:11:47;;;;;;;6.27;1.70;;;;;;;-145.18;100.00;46613.50;5061491;28;20051;-67
2023/07/05 09:14:27;;;;;;;3.97;1.63;;;;;;;-145.18;100.00;46578.34;5072219;28;20032;-67
2023/07/05 09:17:35;;;;;;;6.67;2.13;;;;;;;-145.18;100.00;46572.50;5072363;28;20103;-66
2023/07/05 09:20:32;;;;;;;7.63;1.67;;;;;;;-145.18;100.00;46568.59;5007292;28;20040;-67
2023/07/05 09:23:05;;;;;;;11.17;2.30;;;;;;;-145.18;100.00;46543.19;5063089;28;20099;-66
2023/07/05 09:25:32;;;;;;;12.80;1.97;;;;;;;-145.18;100.00;46543.19;5071574;28;20024;-67
2023/07/05 09:28:13;;;;;;;14.33;1.80;;;;;;;-145.18;100.00;46551.00;5072180;28;20021;-67
2023/07/05 09:30:38;;;;;;;6.17;1.67;;;;;;;-145.18;100.00;46554.91;5055446;28;20031;-67
2023/07/05 09:33:11;;;;;;;8.27;1.53;;;;;;;-145.18;100.00;46547.09;5058457;28;20029;-66
2023/07/05 09:35:39;;;;;;;5.27;1.70;;;;;;;-145.18;100.00;46560.78;5072349;28;20028;-67
2023/07/05 09:38:28;;;;;;;7.80;2.00;;;;;;;-145.18;100.00;46554.91;5072222;28;20020;-67
2023/07/05 09:41:20;;;;;;;9.23;1.57;;;;;;;-145.18;100.00;46560.78;5072184;28;20108;-67
2023/07/05 09:43:46;;;;;;;3.23;1.53;;;;;;;-145.18;100.00;46560.78;5059554;28;20499;-66
2023/07/05 09:46:21;;;;;;;12.60;1.70;;;;;;;-145.18;100.00;46562.72;5071970;28;20091;-67
2023/07/05 09:48:47;;;;;;;3.22;1.40;;;;;;;-145.18;100.00;46564.69;5071825;28;20400;-66
2023/07/05 09:51:13;;;;;;;8.57;3.07;;;;;;;-145.18;100.00;46568.59;5064506;28;20047;-66
2023/07/05 09:53:54;;;;;;;7.67;1.63;;;;;;;-145.18;100.00;46572.50;5071540;28;20447;-67
2023/07/05 09:56:28;;;;;;;5.00;1.80;;;;;;;-145.18;100.00;46564.69;5072025;28;20396;-66
2023/07/05 09:59:09;;;;;;;8.80;1.67;;;;;;;-145.18;100.00;46574.44;5074610;28;20052;-67
2023/07/05 10:01:39;;;;;;;4.27;1.80;;;;;;;-145.18;100.00;46580.31;5091624;28;20487;-66
2023/07/05 10:04:06;;;;;;;6.50;1.40;;;;;;;-145.18;100.00;46566.63;5091813;28;20012;-66
2023/07/05 10:06:31;;;;;;;9.07;1.63;;;;;;;-145.18;100.00;46558.81;5091844;28;20471;-67
2023/07/05 10:09:07;;;;;;;9.20;1.27;;;;;;;-145.18;100.00;46570.53;5091263;28;20068;-67
2023/07/05 10:11:33;;;;;;;11.63;1.90;;;;;;;-145.18;100.00;46564.69;5091336;28;20026;-67
2023/07/05 10:14:02;;;;;;;7.30;2.20;;;;;;;-145.18;100.00;46568.59;5091475;28;20028;-67
2023/07/05 10:16:51;;;;;;;8.40;1.33;;;;;;;-145.18;100.00;46580.31;5091015;28;20031;-66
2023/07/05 10:19:38;;;;;;;9.50;1.70;;;;;;;-145.18;100.00;46562.72;5091769;28;20028;-66
2023/07/05 10:22:33;;;;;;;6.37;1.47;;;;;;;-145.18;100.00;46580.31;5065376;28;20476;-67
2023/07/05 10:25:14;;;;;;;5.77;1.20;;;;;;;-145.18;100.00;46605.69;5074476;28;20115;-66
2023/07/05 10:27:48;;;;;;;2.50;1.23;;;;;;;-145.18;100.00;46592.03;5091814;28;20024;-66
2023/07/05 10:30:19;;;;;;;9.07;1.80;;;;;;;-145.18;100.00;46568.59;5067473;28;20431;-67
2023/07/05 10:33:15;;;;;;;5.10;1.40;;;;;;;-145.18;100.00;46586.16;5075828;28;20040;-66
2023/07/05 10:35:46;;;;;;;7.23;1.60;;;;;;;-145.18;100.00;46568.59;5071574;28;20036;-67
2023/07/05 10:38:41;;;;;;;5.83;1.50;;;;;;;-145.18;100.00;47154.63;5088855;28;20020;-67
2023/07/05 10:41:16;;;;;;;7.27;3.27;;;;;;;-145.18;100.00;46722.91;5089324;28;20399;-67
2023/07/05 10:43:44;;;;;;;2.75;1.80;;;;;;;-145.18;100.00;47017.88;5092565;28;20024;-67
2023/07/05 10:46:10;;;;;;;3.63;1.23;;;;;;;-145.18;100.00;47185.88;5081886;28;20098;-66
2023/07/05 10:48:42;;;;;;;4.43;1.10;;;;;;;-145.18;100.00;47115.56;5084794;28;20040;-67
2023/07/05 10:51:20;;;;;;;3.27;1.90;;;;;;;-145.18;100.00;47223.00;5092946;28;20027;-67
2023/07/05 10:53:54;;;;;;;9.70;1.60;;;;;;;-145.18;100.00;47195.66;5080172;28;20029;-67
2023/07/05 10:56:26;;;;;;;6.07;1.48;;;;;;;-145.18;100.00;47195.66;5084400;28;20479;-67
2023/07/05 10:59:14;;;;;;;4.00;1.50;;;;;;;-145.18;100.00;47109.69;5094840;28;20063;-67
2023/07/05 11:01:50;;;;;;;7.10;1.60;;;;;;;-145.18;100.00;47189.78;5079812;28;20044;-67
2023/07/05 11:04:21;;;;;;;5.05;1.73;;;;;;;-145.18;100.00;47156.56;5094691;28;20483;-67
2023/07/05 11:06:49;;;;;;;7.37;1.77;;;;;;;-145.18;100.00;47129.22;5088792;28;20055;-66
2023/07/05 11:09:14;;;;;;;5.20;2.63;;;;;;;-145.18;100.00;47154.63;5099779;28;20020;-67
2023/07/05 11:11:54;;;;;;;11.13;1.53;;;;;;;-145.18;100.00;47129.22;5088498;28;20529;-67
2023/07/05 11:14:25;;;;;;;3.63;1.47;;;;;;;-145.18;100.00;47133.13;5070878;28;20024;-67
2023/07/05 11:16:50;;;;;;;8.80;1.77;;;;;;;-145.18;100.00;47232.75;5085887;28;20067;-67
2023/07/05 11:19:22;;;;;;;6.20;1.73;;;;;;;-145.18;100.00;47105.78;5079112;28;20052;-67
2023/07/05 11:21:49;;;;;;;5.90;1.43;;;;;;;-145.18;100.00;47168.28;5088485;28;20432;-67
2023/07/05 11:24:30;;;;;;;4.83;1.53;;;;;;;-145.18;100.00;47125.31;5079635;28;20105;-67
2023/07/05 11:26:56;;;;;;;3.17;1.40;;;;;;;-145.18;100.00;47144.84;5077386;28;20063;-67
2023/07/05 11:29:25;;;;;;;4.83;1.43;;;;;;;-145.18;100.00;47166.34;5080739;28;20432;-67
2023/07/05 11:31:53;;;;;;;6.60;1.40;;;;;;;-145.18;100.00;47115.56;5076421;28;20035;-67
2023/07/05 11:34:21;;;;;;;3.47;2.37;;;;;;;-145.18;100.00;47119.47;5079021;28;20020;-66
2023/07/05 11:37:14;;;;;;;6.30;1.43;;;;;;;-145.18;100.00;47166.34;5076310;28;20060;-67
2023/07/05 11:39:46;;;;;;;3.97;1.40;;;;;;;-145.18;100.00;47090.16;5076326;28;20047;-67
2023/07/05 11:42:14;;;;;;;3.67;1.60;;;;;;;-145.18;100.00;47158.53;5075814;28;20552;-67